الصفحة الرئيسية
METAR-TAF:

METAR-TAF

مطار :

ساموس, اليونان

دائرة عرض: 37-42N, خط طول: 026-55E, ارتفاع: 2 متر

مراقبة الطقس الحالي

تاريخ ووقت الإصدار 31 دقيقة قبل الساعة 04:50UTC
رياح هادئة
درجة الحرارة 9°درجة مئوية
الرطوبة 87%
ضغط 1022 hPa
الرؤية 10 كم أو أكثر
غيوم قليلة على ارتفاع 2000 قدم

METAR: LGSM 290450Z 00000KT 9999 FEW020 09/07 Q1022

زمن: 07:21 (05:21 UTC)

توقعات

تاريخ ووقت الإصدار 3ساعات و 21 دقيقة قبل الساعة 02:00UTC
التوقعات صالحة من29 الساعة 03 UTC إلى 29 الساعة 12 UTC
ريح 6 عقدة من الجنوب الغربي
الرؤية 10 كم أو أكثر
غيوم قليلة على ارتفاع 2500 قدم
غيوم متفرقة على ارتفاع 6000 قدم

TAF: LGSM 290200Z 2903/2912 23006KT 9999 FEW025 SCT060

أرصاد الطقس والتوقعات من أكثر من 4000 مطار (تقارير الطقس للمطار METAR والتنبؤ بالطقس بالمطارTAF).

المحطات المتاحة هي النقط الصفراء والحمراء على الخريطة.

حرك المؤشر فوق النقطة لمعرفة اسم المحطة.

ثم انقر لمعرفة أرصاد وتوقعات الطقس.

لتغيير الخارطة: اضغط على الأزرار الخضراء مع رمز الصليب الأسود للتكبير. على الزر الأخضر مع شرطة للتصغير، أو على الأسهم الخضراء للخرائط المجاورة.


METAR-TAF: